Latest Coastal Weather Observations for Coolangatta (QLD)

IDN60701

Issued at 6:22 am EDT Sunday 21 December 2014 (issued every 10 minutes, with the page automatically refreshed every 10 minutes)

About coastal observations | Map of coastal stations | Coastal observations for NSW | Marine services | Other Formats
Station Details ID: 040717 Name: COOLANGATTA Lat: -28.17 Lon: 153.51 Height: 4.0 m
Data from the previous 72 hours. | See also: Recent months at Coolangatta (QLD)
Date/Time
EDT
Temp

°C
Wind Pressure Rain
since 9am
mm
Weather Cloud Vis
km
Sea
Height
m
Swell
Dir
 
Speed
knots
Gust
knots
hPa Trend Height
m
Period
s
Dir
21/06:00am 23.4 ENE 7 9 1016.9 - 0.0 - Partly cloudy 10 - - - -
21/05:30am 23.5 ENE 7 9 1016.7 - 0.0 - Partly cloudy 10 - - - -
21/05:00am 23.5 ENE 7 9 1016.4 - 0.0 - Partly cloudy 10 - - - -
21/04:30am 23.5 ENE 7 10 1016.3 - 0.0 - Cloudy 10 - - - -
21/04:00am 23.5 ENE 8 11 1016.4 - 0.0 - Mostly cloudy 10 - - - -
21/03:30am 23.5 E 7 9 1016.3 - 0.0 - Partly cloudy 10 - - - -
21/03:00am 23.4 E 7 10 1016.5 - 0.0 - Cloudy 10 - - - -
21/02:30am 23.5 E 7 10 1016.7 - 0.0 - Partly cloudy 10 - - - -
21/02:00am 23.4 E 8 11 1017.0 - 0.0 - Cloudy 10 - - - -
21/01:30am 23.5 ESE 7 11 1017.3 - 0.0 - Cloudy 10 - - - -
21/01:00am 23.6 ESE 7 11 1017.4 - 0.0 - Cloudy 29 - - - -
21/12:30am 23.7 E 8 11 1017.5 - 0.0 - Partly cloudy 10 - - - -
21/12:00am 23.7 E 8 13 1017.8 - 0.0 - Cloudy 10 - - - -
 
Date/Time
EDT
Temp

°C
Wind Pressure Rain
since 9am
mm
Weather Cloud Vis
km
Sea
Height
m
Swell
Dir
 
Speed
knots
Gust
knots
hPa Trend Height
m
Period
s
Dir
20/11:30pm 23.6 E 9 12 1018.0 - 0.0 - Cloudy 10 - - - -
20/11:00pm 23.7 E 8 12 1018.0 - 0.0 - Partly cloudy 10 - - - -
20/10:30pm 23.7 ESE 8 10 1018.1 - 0.0 - Partly cloudy 10 - - - -
20/10:00pm 23.8 E 7 11 1017.8 - 0.0 - Cloudy 10 - - - -
20/09:30pm 23.7 ESE 7 10 1017.4 - 0.0 - Partly cloudy 10 - - - -
20/09:00pm 23.7 ESE 9 11 1016.8 - 0.0 - Partly cloudy 10 - - - -
20/08:30pm 24.0 E 9 13 1016.7 - 0.0 - Partly cloudy 10 - - - -
20/08:00pm 24.1 ESE 8 11 1016.3 - 0.0 - Partly cloudy 10 - - - -
20/07:30pm 24.2 E 9 12 1016.0 - 0.0 - Partly cloudy 10 - - - -
20/07:00pm 24.4 E 10 13 1015.5 - 0.0 - Cloudy 10 - - - -
20/06:30pm 24.7 ESE 11 14 1015.1 - 0.0 - Partly cloudy 10 - - - -
20/06:00pm 24.8 ESE 11 14 1014.7 - 0.0 - Partly cloudy 10 - - - -
20/05:30pm 25.5 E 11 17 1014.4 - 0.0 - Partly cloudy 10 - - - -
20/05:00pm 25.0 E 10 15 1014.3 - 0.0 - Partly cloudy 10 - - - -
20/04:30pm 26.4 ESE 9 12 1014.5 - 0.0 - Partly cloudy 10 - - - -
20/04:00pm 25.3 E 11 13 1014.8 - 0.0 - Mostly cloudy 10 - - - -
20/03:30pm 26.7 E 12 18 1014.9 - 0.0 - Partly cloudy 10 - - - -
20/03:00pm 26.8 ESE 10 15 1015.3 - 0.0 - Partly cloudy 10 - - - -
20/02:30pm 26.7 E 13 17 1015.4 - 0.0 - Partly cloudy 10 - - - -
20/02:00pm 27.3 E 13 17 1015.7 - 0.0 - Partly cloudy 10 - - - -
20/01:30pm 25.9 ESE 11 14 1016.0 - 0.0 - Partly cloudy 10 - - - -
20/01:00pm 26.6 E 11 15 1016.1 - 0.0 - Mostly cloudy 10 - - - -
20/12:30pm 27.5 ESE 11 17 1016.4 - 0.0 - Partly cloudy 10 - - - -
20/12:00pm 27.2 SE 12 17 1016.7 - 0.0 - Partly cloudy 10 - - - -
20/11:30am 27.3 ESE 12 18 1016.7 - 0.0 - Partly cloudy 10 - - - -
20/11:00am 26.2 ESE 11 15 1016.8 - 0.0 - Partly cloudy 10 - - - -
20/10:30am 26.3 ESE 13 18 1016.8 - 0.0 - Partly cloudy 10 - - - -
20/10:00am 26.9 SE 11 15 1016.7 - 0.0 - Cloudy 10 - - - -
20/09:30am 26.4 SE 11 15 1016.6 - 0.0 - Partly cloudy 10 - - - -
20/09:00am 26.1 ESE 11 16 1016.3 - 0.0 - Partly cloudy 10 - - - -
20/08:30am 26.2 SE 11 15 1016.2 - 0.0 - Partly cloudy 10 - - - -
20/08:00am 24.9 S 6 9 1016.0 - 0.0 - Partly cloudy 10 - - - -
20/07:30am 23.9 S 6 9 1015.7 - 0.0 - Partly cloudy 10 - - - -
20/07:00am 23.1 S 6 9 1015.2 - 0.0 - - 10 - - - -
20/06:30am 22.1 S 6 8 1015.0 - 0.0 - - 10 - - - -
20/06:00am 21.5 SSW 5 7 1014.8 - 0.0 - Partly cloudy 10 - - - -
20/05:30am 21.5 S 6 9 1014.4 - 0.0 - Partly cloudy 10 - - - -
20/05:00am 21.6 S 5 8 1014.1 - 0.0 - Partly cloudy 10 - - - -
20/04:30am 21.8 S 6 9 1014.0 - 0.0 - Partly cloudy 10 - - - -
20/04:00am 22.1 S 7 9 1013.8 - 0.0 - Cloudy 10 - - - -
20/03:30am 22.0 SSW 7 10 1013.7 - 0.0 - Partly cloudy 10 - - - -
20/03:00am 22.2 S 8 11 1013.7 - 0.0 - - 10 - - - -
20/02:30am 22.4 SSW 9 12 1013.8 - 0.0 - Partly cloudy 10 - - - -
20/02:00am 22.4 S 8 10 1013.9 - 0.0 - - 10 - - - -
20/01:30am 22.6 S 9 13 1014.1 - 0.0 - - 10 - - - -
20/01:00am 22.8 S 9 14 1014.5 - 0.0 - - 10 - - - -
20/12:30am 22.8 SSW 9 14 1014.7 - 0.0 - - 10 - - - -
20/12:00am 22.9 S 10 14 1014.7 - 0.0 - - 10 - - - -
 
Date/Time
EDT
Temp

°C
Wind Pressure Rain
since 9am
mm
Weather Cloud Vis
km
Sea
Height
m
Swell
Dir
 
Speed
knots
Gust
knots
hPa Trend Height
m
Period
s
Dir
19/11:30pm 23.1 S 10 13 1014.7 - 0.0 - - 10 - - - -
19/11:00pm 23.3 S 10 14 1014.7 - 0.0 - - 10 - - - -
19/10:30pm 23.5 S 11 16 1014.4 - 0.0 - - 10 - - - -
19/10:00pm 23.7 S 11 17 1014.2 - 0.0 - Cloudy 10 - - - -
19/09:30pm 24.2 S 11 14 1013.7 - 0.0 - Partly cloudy 10 - - - -
19/09:00pm 24.4 S 10 14 1013.3 - 0.0 - Partly cloudy 10 - - - -
19/08:30pm 24.6 SSE 10 14 1012.9 - 0.0 - - 10 - - - -
19/08:00pm 25.3 SSE 11 17 1012.5 - 0.0 - Partly cloudy 10 - - - -
19/07:30pm 26.2 SE 8 11 1011.9 - 0.0 - - 10 - - - -
19/07:00pm 27.3 SE 9 15 1011.3 - 0.0 - Mostly clear 10 - - - -
19/06:30pm 27.6 ESE 6 9 1010.6 - 0.0 - - 10 - - - -
19/06:00pm 26.8 ENE 8 11 1010.0 - 0.0 - - 10 - - - -
19/05:30pm 27.1 ENE 10 13 1009.3 - 0.0 - - 10 - - - -
19/05:00pm 27.5 NE 9 13 1008.5 - 0.0 - - 10 - - - -
19/04:30pm 28.1 NNE 11 14 1008.3 - 0.0 - - 10 - - - -
19/04:00pm 28.0 NNE 11 15 1008.3 - 0.0 - - 10 - - - -
19/03:30pm 28.5 NNE 12 16 1008.5 - 0.0 - - 10 - - - -
19/03:00pm 28.9 NNE 13 16 1008.8 - 0.0 - - 10 - - - -
19/02:30pm 28.7 NNE 12 16 1009.0 - 0.0 - - 10 - - - -
19/02:00pm 29.4 NNE 12 14 1009.3 - 0.0 - - 10 - - - -
19/01:30pm 29.1 NNE 11 13 1009.7 - 0.0 - - 10 - - - -
19/01:00pm 28.5 NNE 10 12 1010.0 - 0.0 - Mostly clear 10 - - - -
19/12:30pm 28.2 NNE 11 13 1010.2 - 0.0 - - 10 - - - -
19/12:00pm 28.4 NNE 10 12 1010.4 - 0.0 - - 10 - - - -
19/11:30am 27.3 NNE 12 14 1010.5 - 0.0 - - 10 - - - -
19/11:00am 27.0 NNE 11 13 1010.5 - 0.0 - - 10 - - - -
19/10:30am 26.5 N 11 13 1010.7 - 0.0 - - 10 - - - -
19/10:00am 26.7 N 9 13 1010.9 - 5.6 - - 10 - - - -
19/09:30am 25.7 NW 6 9 1011.1 - 5.6 - - 10 - - - -
19/09:00am 23.9 WNW 5 9 1011.2 - 5.6 - - 10 - - - -
19/08:30am 22.2 NW 4 6 1011.0 - 5.6 - - 10 - - - -
19/08:00am 21.0 CALM 0 0 1011.1 - 5.6 - - 10 - - - -
19/07:30am 20.7 CALM 0 0 1011.0 - 5.6 - - 10 - - - -
19/07:00am 20.5 SW 2 4 1011.0 - 5.6 - Mostly clear 10 - - - -
19/06:30am 20.2 WNW 3 7 1010.7 - 5.6 - - 10 - - - -
19/06:00am 20.2 WNW 7 10 1010.7 - 5.6 - Cloudy 10 - - - -
19/05:30am 19.9 NW 6 7 1010.3 - 5.6 - Cloudy 10 - - - -
19/05:00am 19.9 N 6 8 1010.3 - 5.6 - Partly cloudy 10 - - - -
19/04:30am 19.9 WNW 4 5 1010.5 - 5.4 - Partly cloudy 10 - - - -
19/04:00am 19.9 CALM 0 0 1010.7 - 5.4 Rain Cloudy 10 - - - -
19/03:30am 19.9 WSW 4 6 1011.4 - 5.0 - Cloudy 10 - - - -
19/03:00am 20.3 W 6 8 1011.6 - 4.8 - Partly cloudy 9 - - - -
19/02:30am 21.3 WSW 8 13 1011.9 - 3.6 - Partly cloudy 10 - - - -
19/02:00am 22.4 W 7 11 1012.0 - 3.0 - Partly cloudy 8 - - - -
19/01:30am 22.7 WSW 6 7 1011.9 - 1.8 - Partly cloudy 8 - - - -
19/01:00am 23.0 W 6 8 1011.7 - 1.2 Rain Cloudy 10 - - - -
19/12:30am 23.3 N 5 8 1011.1 - 1.0 - Partly cloudy 10 - - - -
19/12:00am 23.1 SE 5 6 1011.4 - 1.0 - Partly cloudy 10 - - - -
 
Date/Time
EDT
Temp

°C
Wind Pressure Rain
since 9am
mm
Weather Cloud Vis
km
Sea
Height
m
Swell
Dir
 
Speed
knots
Gust
knots
hPa Trend Height
m
Period
s
Dir
18/11:30pm 22.8 W 6 8 1011.2 - 1.0 - Cloudy 10 - - - -
18/11:00pm 23.0 W 4 7 1010.7 - 1.0 - Cloudy 10 - - - -
18/10:30pm 23.9 NE 6 8 1010.5 - 1.0 - Cloudy 10 - - - -
18/10:00pm 23.6 SE 3 6 1010.9 - 0.8 Rain Cloudy 10 - - - -
18/09:30pm 23.6 ESE 6 8 1010.1 - 0.6 - Partly cloudy 10 - - - -
18/09:00pm 23.7 E 4 6 1010.1 - 0.6 - - 10 - - - -
18/08:30pm 23.2 SSW 2 4 1010.1 - 0.6 - Cloudy 10 - - - -
18/08:00pm 23.1 WNW 9 11 1010.0 - 0.6 - Partly cloudy 10 - - - -
18/07:30pm 25.2 W 14 23 1009.7 - 0.0 - Partly cloudy 10 - - - -
18/07:25pm 25.7 WNW 8 23 1009.6 - 0.0 - Partly cloudy 10 - - - -
18/07:00pm 26.2 WNW 8 10 1008.3 - 0.0 - Cloudy 10 - - - -
18/06:30pm 26.2 N 10 14 1006.7 - 0.0 - - 10 - - - -
18/06:00pm 26.2 N 11 16 1006.7 - 0.0 - - 10 - - - -
18/05:30pm 26.3 N 11 14 1006.1 - 0.0 - Partly cloudy 10 - - - -
18/05:00pm 26.7 N 12 15 1006.0 - 0.0 - - 10 - - - -
18/04:30pm 27.6 N 15 18 1005.8 - 0.0 - - 10 - - - -
18/04:00pm 27.1 N 11 17 1006.3 - 0.0 - Partly cloudy 10 - - - -
18/03:30pm 27.3 NNE 13 18 1006.3 - 0.0 - - 10 - - - -
18/03:00pm 29.0 NNE 12 15 1006.7 - 0.0 - - 10 - - - -
18/02:30pm 28.6 NNE 14 17 1007.7 - 0.0 - - 10 - - - -
18/02:00pm 28.9 NNE 12 16 1008.3 - 0.0 - - 10 - - - -
18/01:30pm 28.7 NNE 11 13 1008.5 - 0.0 - - 10 - - - -
18/01:00pm 27.5 NNE 11 15 1008.9 - 0.0 - Mostly clear 10 - - - -
18/12:30pm 28.5 N 11 13 1009.7 - 0.0 - - 10 - - - -
18/12:00pm 28.5 NNE 10 12 1010.1 - 0.0 - - 10 - - - -
18/11:30am 27.6 NNE 11 13 1010.4 - 0.0 - - 10 - - - -
18/11:00am 28.2 N 11 13 1010.4 - 0.0 - - 10 - - - -
18/10:30am 27.6 N 9 11 1010.4 - 0.0 - - 10 - - - -
18/10:07am 27.4 NNW 11 14 1010.4 - 0.0 - Partly cloudy 10 - - - -
18/10:00am 27.6 NNW 10 14 1010.4 - 0.2 Recent precip. Cloudy 10 - - - -
18/09:30am 27.4 NNW 7 9 1010.9 - 0.0 - Partly cloudy 10 - - - -
18/09:28am 27.0 NNW 7 9 1010.9 - 0.0 - Partly cloudy 10 - - - -
18/09:13am 26.8 NW 4 7 1010.8 - 0.0 - Partly cloudy 9 - - - -
18/09:00am 25.8 NNW 6 8 1010.9 - 0.0 - Partly cloudy 9 - - - -
18/08:58am 25.5 NNW 6 8 1010.9 - 0.0 - Partly cloudy 9 - - - -
18/08:30am 25.5 NNE 7 9 1010.8 - 0.0 - Partly cloudy 9 - - - -
18/08:00am 25.3 NW 4 6 1010.8 - 0.0 - - 10 - - - -
18/07:30am 23.9 NNW 4 5 1010.5 - 0.0 - - 9 - - - -

Other Formats:

Comma delimited format used in spreadsheet applications
http://www.bom.gov.au/fwo/IDN60701/IDN60701.94592.axf

JavaScript Object Notation format (JSON) in row-major order
http://www.bom.gov.au/fwo/IDN60701/IDN60701.94592.json